Terminal Aerodrome Forecast
Issued by NWS

Home | Current Version | Previous Version | Text Only | Print | Product List | Glossary On
Versions: 1 2 3 4 5 6 7 8 9 10 11 12 13 14 15 16 17 18 19 20 21 22 23 24 25 26 27 28
000
FTUS43 KDLH 290500
TAFBRD
TAF
KBRD 290521Z 2906/3006 29006KT 3SM -FZDZSN BR OVC004
     FM290800 32012G20KT 6SM -SN BR BKN008 OVC018
     FM291200 33018G29KT 3SM -SN BLSN OVC016
     FM292000 34014G23KT P6SM -SN OVC024
     FM300300 32005KT P6SM OVC013=

USA.gov is the U.S. government's official web portal to all federal, state and local government web resources and services.